Time;durP1;ratioP1;P1;durP2;ratioP2;P2;SDS_P1;SDS_P2;PMS_P1;PMS_P2;Temp;Humidity;BMP_temperature;BMP_pressure;BME280_temperature;BME280_humidity;BME280_pressure;Samples;Min_cycle;Max_cycle;Signal;HPM_P1;HPM_P2
2024/03/21 00:01:33;;;;;;;8.73;4.10;;;9.60;99.90;;;9.07;100.00;101894.09;4104143;28;20019;-71
2024/03/21 00:03:34;;;;;;;6.55;3.63;;;9.70;99.90;;;9.08;100.00;101896.59;4102620;29;20038;-71
2024/03/21 00:05:35;;;;;;;7.05;4.43;;;9.70;99.90;;;9.13;100.00;101898.88;4103886;29;20031;-71
2024/03/21 00:07:36;;;;;;;15.18;5.57;;;9.70;99.90;;;9.18;100.00;101905.47;4103815;28;20090;-71
2024/03/21 00:09:38;;;;;;;11.48;4.90;;;9.80;99.90;;;9.26;100.00;101918.03;4103605;29;20038;-70
2024/03/21 00:11:39;;;;;;;15.48;7.20;;;9.80;99.90;;;9.31;100.00;101911.47;4103570;29;20036;-71
2024/03/21 00:13:40;;;;;;;14.50;7.43;;;9.90;99.90;;;9.36;100.00;101911.09;4103856;29;20086;-71
2024/03/21 00:15:41;;;;;;;13.43;6.07;;;9.90;99.90;;;9.34;100.00;101899.88;4102639;29;20027;-70
2024/03/21 00:17:44;;;;;;;17.80;7.05;;;9.90;99.90;;;9.31;100.00;101903.56;4118585;28;20077;-71
2024/03/21 00:19:45;;;;;;;10.50;5.03;;;9.90;99.90;;;9.32;100.00;101909.66;4102524;29;20031;-71
2024/03/21 00:21:46;;;;;;;9.35;5.75;;;9.90;99.90;;;9.27;100.00;101906.56;4103778;29;20054;-71
2024/03/21 00:23:47;;;;;;;11.60;5.72;;;9.90;99.90;;;9.19;100.00;101907.16;4103983;29;20031;-71
2024/03/21 00:25:49;;;;;;;12.60;6.47;;;9.90;99.90;;;9.15;100.00;101904.88;4103552;29;20082;-70
2024/03/21 00:27:50;;;;;;;17.02;7.40;;;9.80;99.90;;;9.13;100.00;101904.16;4103747;28;20460;-70
2024/03/21 00:29:51;;;;;;;11.68;6.25;;;9.80;99.90;;;9.12;100.00;101902.47;4106305;28;20058;-70
2024/03/21 00:31:51;;;;;;;11.95;6.07;;;9.70;99.90;;;9.10;100.00;101899.13;4106483;28;20114;-71
2024/03/21 00:33:53;;;;;;;11.50;6.18;;;9.70;99.90;;;9.09;100.00;101900.06;4106661;29;20030;-71
2024/03/21 00:35:54;;;;;;;9.88;6.13;;;9.70;99.90;;;9.12;100.00;101902.47;4105286;29;20496;-70
2024/03/21 00:37:58;;;;;;;11.30;5.32;;;9.70;99.90;;;9.10;100.00;101909.66;4106487;29;20284;-70
2024/03/21 00:39:59;;;;;;;13.68;5.28;;;9.70;99.90;;;9.07;100.00;101905.47;4106332;29;20070;-70
2024/03/21 00:42:00;;;;;;;8.70;5.07;;;9.70;99.90;;;9.06;100.00;101898.53;4106526;29;20016;-70
2024/03/21 00:44:01;;;;;;;10.07;5.32;;;9.70;99.90;;;9.01;100.00;101895.41;4105308;29;20031;-70
2024/03/21 00:46:02;;;;;;;9.15;5.07;;;9.60;99.90;;;9.03;100.00;101903.19;4089392;29;20016;-70
2024/03/21 00:48:03;;;;;;;9.30;5.25;;;9.60;99.90;;;8.96;100.00;101910.69;4106443;29;20031;-70
2024/03/21 00:50:05;;;;;;;13.15;5.43;;;9.60;99.90;;;8.93;100.00;101910.94;4106461;29;20036;-70
2024/03/21 00:52:06;;;;;;;8.55;4.60;;;9.60;99.90;;;8.95;100.00;101906.41;4105205;29;20407;-70
2024/03/21 00:54:07;;;;;;;9.75;5.20;;;9.50;99.90;;;8.90;100.00;101901.47;4104631;29;20150;-71
2024/03/21 00:56:08;;;;;;;7.78;4.53;;;9.50;99.90;;;8.90;100.00;101901.47;4106109;28;20122;-71
2024/03/21 00:58:09;;;;;;;7.45;4.72;;;9.50;99.90;;;8.89;100.00;101901.63;4106270;28;20023;-71
2024/03/21 01:00:13;;;;;;;9.85;5.80;;;9.50;99.90;;;8.86;100.00;101901.84;4106199;29;20507;-71
2024/03/21 01:02:15;;;;;;;11.50;4.70;;;9.40;99.90;;;8.84;100.00;101904.56;4106089;29;20039;-71
2024/03/21 01:04:17;;;;;;;10.10;4.97;;;9.40;99.90;;;8.79;100.00;101895.34;4106228;29;20020;-71
2024/03/21 01:06:18;;;;;;;12.30;5.90;;;9.40;99.90;;;8.81;100.00;101899.53;4104881;29;20027;-70
2024/03/21 01:08:19;;;;;;;9.40;4.85;;;9.40;99.90;;;8.78;100.00;101899.78;4106056;28;20032;-71
2024/03/21 01:10:20;;;;;;;12.90;5.68;;;9.40;99.90;;;8.74;100.00;101897.50;4105690;29;20039;-71
2024/03/21 01:12:21;;;;;;;9.50;4.28;;;9.30;99.90;;;8.70;100.00;101902.16;4104993;29;20015;-71
2024/03/21 01:14:22;;;;;;;10.00;4.70;;;9.30;99.90;;;8.68;100.00;101898.81;4106076;28;20058;-71
2024/03/21 01:16:23;;;;;;;10.73;5.38;;;9.30;99.90;;;8.68;100.00;101895.34;4105929;29;20074;-71
2024/03/21 01:18:34;;;;;;;11.50;6.10;;;9.30;99.90;;;8.67;100.00;101886.59;4105872;28;20086;-71
2024/03/21 01:20:39;;;;;;;13.80;5.85;;;9.30;99.90;;;8.72;100.00;101897.59;4106016;29;20024;-70
2024/03/21 01:22:39;;;;;;;13.85;6.07;;;9.30;99.90;;;8.73;100.00;101891.41;4105913;28;20063;-70
2024/03/21 01:24:45;;;;;;;17.85;6.40;;;9.30;99.90;;;8.76;100.00;101887.69;4105551;29;20027;-70
2024/03/21 01:26:46;;;;;;;10.20;5.32;;;9.30;99.90;;;8.75;100.00;101902.63;4105802;29;20086;-71
2024/03/21 01:28:47;;;;;;;11.13;6.13;;;9.30;99.90;;;8.75;100.00;101902.63;4105889;29;20475;-70
2024/03/21 01:30:49;;;;;;;12.15;5.88;;;9.30;99.90;;;8.74;100.00;101900.97;4105735;29;20037;-70
2024/03/21 01:32:49;;;;;;;17.83;5.85;;;9.30;99.90;;;8.70;100.00;101894.25;4104339;28;20549;-70
2024/03/21 01:34:50;;;;;;;10.73;6.03;;;9.30;99.90;;;8.66;100.00;101897.25;4102731;29;20035;-70
2024/03/21 01:36:53;;;;;;;12.35;6.13;;;9.20;99.90;;;8.64;100.00;101896.50;4102376;29;20031;-70
2024/03/21 01:38:53;;;;;;;15.48;5.95;;;9.20;99.90;;;8.61;100.00;101909.91;4102209;29;20023;-70
2024/03/21 01:40:54;;;;;;;11.43;5.85;;;9.20;99.90;;;8.55;100.00;101891.94;4104742;28;20032;-71
2024/03/21 01:42:56;;;;;;;17.05;7.13;;;9.20;99.90;;;8.54;100.00;101888.47;4105782;29;20031;-71
2024/03/21 01:45:05;;;;;;;10.93;7.05;;;9.10;99.90;;;8.55;100.00;101891.94;4104541;29;20403;-70
2024/03/21 01:47:07;;;;;;;14.10;5.80;;;9.10;99.90;;;8.49;100.00;101895.88;4104370;29;20042;-71
2024/03/21 01:49:10;;;;;;;13.10;6.72;;;9.10;99.90;;;8.50;100.00;101904.59;4105361;28;20024;-71
2024/03/21 01:51:14;;;;;;;14.88;6.25;;;9.10;99.90;;;8.49;100.00;101892.41;4105616;29;20039;-71
2024/03/21 01:53:15;;;;;;;13.50;6.75;;;9.10;99.90;;;8.45;100.00;101894.44;4105583;29;20395;-71
2024/03/21 01:55:16;;;;;;;8.73;5.70;;;9.00;99.90;;;8.44;100.00;101894.53;4103787;29;20039;-71
2024/03/21 01:57:18;;;;;;;10.93;6.25;;;9.00;99.90;;;8.39;100.00;101891.44;4105191;28;20067;-71
2024/03/21 01:59:18;;;;;;;16.92;8.02;;;9.00;99.90;;;8.42;100.00;101891.19;4104239;29;20031;-71
2024/03/21 02:01:28;;;;;;;15.57;7.30;;;9.00;99.90;;;8.39;100.00;101887.00;4105356;28;20411;-71
2024/03/21 02:03:30;;;;;;;12.02;6.68;;;9.00;99.90;;;8.37;100.00;101894.16;4103895;29;20035;-71
2024/03/21 02:05:31;;;;;;;18.27;8.32;;;9.00;99.90;;;8.39;100.00;101892.28;4100366;29;20031;-70
2024/03/21 02:07:32;;;;;;;14.15;6.97;;;9.00;99.90;;;8.37;100.00;101890.69;4103854;29;20035;-70
2024/03/21 02:09:33;;;;;;;15.90;7.82;;;8.90;99.90;;;8.32;100.00;101877.91;4105158;29;20023;-71
2024/03/21 02:11:34;;;;;;;13.30;7.70;;;8.90;99.90;;;8.32;100.00;101888.41;4104948;29;20028;-70
2024/03/21 02:13:34;;;;;;;19.00;8.77;;;8.90;99.90;;;8.27;100.00;101888.72;4105148;29;20035;-70
2024/03/21 02:15:36;;;;;;;14.48;7.22;;;8.90;99.90;;;8.24;100.00;101881.03;4119845;28;20027;-70
2024/03/21 02:17:37;;;;;;;14.05;7.35;;;8.80;99.90;;;8.22;100.00;101885.59;4104955;28;20027;-70
2024/03/21 02:19:38;;;;;;;15.13;7.47;;;8.80;99.90;;;8.19;100.00;101893.69;4104985;29;20035;-71
2024/03/21 02:23:58;;;;;;;14.10;6.97;;;8.80;99.90;;;8.17;100.00;101905.28;4104053;29;20435;-71
2024/03/21 02:26:00;;;;;;;18.75;8.88;;;8.80;99.90;;;8.15;100.00;101900.13;4104622;28;20031;-70
2024/03/21 02:28:00;;;;;;;17.13;8.10;;;8.70;99.90;;;8.09;100.00;101899.75;4119412;28;20031;-70
2024/03/21 02:30:02;;;;;;;12.85;7.63;;;8.70;99.90;;;8.10;100.00;101898.78;4104898;29;20038;-71
2024/03/21 02:32:02;;;;;;;18.08;9.70;;;8.70;99.90;;;8.06;100.00;101898.19;4103348;28;20043;-71
2024/03/21 02:34:03;;;;;;;19.15;8.93;;;8.70;99.90;;;8.09;100.00;101891.88;4100493;29;20031;-71
2024/03/21 02:36:05;;;;;;;16.23;8.38;;;8.70;99.90;;;8.02;100.00;101891.47;4116608;28;20082;-71
2024/03/21 02:38:06;;;;;;;21.17;8.85;;;8.60;99.90;;;8.04;100.00;101900.06;4104631;28;20023;-70
2024/03/21 02:40:09;;;;;;;19.38;10.23;;;8.60;99.90;;;8.02;100.00;101898.50;4104510;29;20031;-70
2024/03/21 02:42:10;;;;;;;13.70;8.70;;;8.60;99.90;;;8.00;100.00;101889.91;4103613;29;20495;-71
2024/03/21 02:44:11;;;;;;;17.27;10.02;;;8.60;99.90;;;7.98;100.00;101889.16;4088518;29;20082;-72
2024/03/21 02:46:11;;;;;;;18.23;9.68;;;8.60;99.90;;;7.93;100.00;101893.91;4093952;29;20020;-71
2024/03/21 02:48:12;;;;;;;14.77;8.55;;;8.60;99.90;;;7.86;100.00;101897.91;4119411;28;20027;-70
2024/03/21 02:50:13;;;;;;;17.55;7.82;;;8.50;99.90;;;7.80;100.00;101894.78;4104477;28;20050;-71
2024/03/21 02:52:14;;;;;;;21.27;9.80;;;8.40;99.90;;;7.79;100.00;101903.63;4103632;28;20110;-71
2024/03/21 02:54:15;;;;;;;18.35;9.65;;;8.40;99.90;;;7.79;100.00;101911.50;4104408;29;20023;-71
2024/03/21 02:56:16;;;;;;;18.40;8.98;;;8.40;99.90;;;7.79;100.00;101914.13;4104400;29;20031;-70
2024/03/21 02:58:16;;;;;;;16.65;8.25;;;8.40;99.90;;;7.75;100.00;101917.94;4118838;28;20019;-71
2024/03/21 03:00:17;;;;;;;20.33;10.00;;;8.40;99.90;;;7.74;100.00;101912.78;4104405;28;20031;-71
2024/03/21 03:02:18;;;;;;;19.10;10.85;;;8.40;99.90;;;7.70;100.00;101927.94;4104543;29;20030;-70
2024/03/21 03:04:19;;;;;;;18.88;10.55;;;8.40;99.90;;;7.77;100.00;101930.94;4103282;29;20034;-71
2024/03/21 03:06:20;;;;;;;19.10;10.90;;;8.40;99.90;;;7.75;100.00;101933.69;4104339;28;20503;-71
2024/03/21 03:08:21;;;;;;;16.80;9.90;;;8.40;99.90;;;7.73;100.00;101927.72;4102932;29;20031;-70
2024/03/21 03:10:23;;;;;;;23.83;11.68;;;8.40;99.90;;;7.74;100.00;101942.50;4102721;29;20016;-71
2024/03/21 03:12:23;;;;;;;20.35;9.70;;;8.40;99.90;;;7.75;100.00;101944.19;4104429;28;20087;-70
2024/03/21 03:14:24;;;;;;;22.05;12.30;;;8.30;99.90;;;7.72;100.00;101951.44;4104320;29;20027;-71
2024/03/21 03:16:25;;;;;;;21.08;13.07;;;8.40;99.90;;;7.78;100.00;101951.84;4104252;29;20019;-71
2024/03/21 03:18:26;;;;;;;19.88;11.50;;;8.40;99.90;;;7.78;100.00;101949.22;4091475;29;20028;-71
2024/03/21 03:20:27;;;;;;;23.35;12.98;;;8.40;99.90;;;7.82;100.00;101938.50;4104282;29;20455;-71
2024/03/21 03:22:28;;;;;;;25.50;11.50;;;8.40;99.90;;;7.78;100.00;101943.13;4103082;29;20055;-70
2024/03/21 03:24:29;;;;;;;21.48;11.60;;;8.40;99.90;;;7.73;100.00;101932.97;4103952;29;20069;-70
2024/03/21 03:26:30;;;;;;;23.38;12.68;;;8.40;99.90;;;7.71;100.00;101941.88;4103998;29;20031;-70
2024/03/21 03:28:31;;;;;;;24.90;12.23;;;8.40;99.90;;;7.71;100.00;101934.00;4104225;29;20422;-71
2024/03/21 03:30:32;;;;;;;21.45;12.80;;;8.30;99.90;;;7.69;100.00;101943.78;4104063;29;20035;-70
2024/03/21 03:32:36;;;;;;;27.83;13.38;;;8.30;99.90;;;7.69;100.00;101944.63;4106305;28;20055;-70
2024/03/21 03:36:57;;;;;;;27.52;13.57;;;8.30;99.90;;;7.70;100.00;101958.59;4104041;29;20099;-71
2024/03/21 03:38:58;;;;;;;32.83;16.23;;;8.30;99.90;;;7.77;100.00;101967.72;4103951;29;20019;-70
2024/03/21 03:40:59;;;;;;;33.92;13.60;;;8.40;99.90;;;7.75;100.00;101959.97;4103385;29;20058;-71
2024/03/21 03:43:00;;;;;;;22.63;12.77;;;8.40;99.90;;;7.68;100.00;101953.44;4103757;29;20027;-70
2024/03/21 03:45:01;;;;;;;30.45;15.25;;;8.30;99.90;;;7.70;100.00;101948.94;4102944;29;20031;-71
2024/03/21 03:47:02;;;;;;;30.38;14.85;;;8.30;99.90;;;7.67;100.00;101946.53;4102621;28;20059;-70
2024/03/21 03:49:02;;;;;;;28.67;14.65;;;8.30;99.90;;;7.65;100.00;101952.81;4102636;29;20031;-70
2024/03/21 03:51:04;;;;;;;30.25;15.40;;;8.30;99.90;;;7.68;100.00;101956.06;4104021;29;20039;-70
2024/03/21 03:53:05;;;;;;;28.17;14.63;;;8.30;99.90;;;7.72;100.00;101954.91;4102753;29;20042;-70
2024/03/21 03:55:06;;;;;;;29.83;14.70;;;8.30;99.90;;;7.77;100.00;101941.44;4103680;29;20027;-70
2024/03/21 03:57:07;;;;;;;26.63;14.20;;;8.40;99.90;;;7.74;100.00;101934.63;4103682;29;20439;-70
2024/03/21 03:59:08;;;;;;;28.88;15.32;;;8.40;99.90;;;7.78;100.00;101941.34;4102446;29;20024;-70
2024/03/21 04:01:08;;;;;;;31.65;14.45;;;8.40;99.90;;;7.75;100.00;101959.97;4103881;28;20046;-70
2024/03/21 04:03:09;;;;;;;27.70;15.07;;;8.40;99.90;;;7.81;100.00;101963.94;4103833;28;20035;-70
2024/03/21 04:05:11;;;;;;;30.77;15.00;;;8.40;99.90;;;7.75;100.00;101959.97;4106939;29;20061;-70
2024/03/21 04:07:11;;;;;;;24.88;13.68;;;8.40;99.90;;;7.75;100.00;101959.13;4105848;29;20095;-70
2024/03/21 04:09:12;;;;;;;35.95;15.38;;;8.40;99.90;;;7.69;100.00;101963.00;4106810;28;20039;-70
2024/03/21 04:11:15;;;;;;;25.50;14.20;;;8.30;99.90;;;7.67;100.00;101964.91;4106942;29;20035;-70
2024/03/21 04:13:17;;;;;;;25.60;14.57;;;8.30;99.90;;;7.63;100.00;101970.47;4105595;29;20027;-70
2024/03/21 04:15:18;;;;;;;27.95;14.75;;;8.30;99.90;;;7.61;100.00;101973.22;4100853;29;20024;-70
2024/03/21 04:17:19;;;;;;;26.35;14.13;;;8.20;99.90;;;7.58;100.00;101970.81;4102006;29;20038;-70
2024/03/21 04:19:20;;;;;;;30.83;15.43;;;8.20;99.90;;;7.57;100.00;101970.91;4106834;29;20034;-70
2024/03/21 04:21:21;;;;;;;26.80;14.38;;;8.20;99.90;;;7.55;100.00;101959.69;4106693;29;20404;-71
2024/03/21 04:23:22;;;;;;;27.85;14.88;;;8.20;99.90;;;7.52;100.00;101963.38;4105674;29;20487;-71
2024/03/21 04:25:23;;;;;;;32.35;14.50;;;8.20;99.90;;;7.51;100.00;101963.44;4106582;28;20034;-70
2024/03/21 04:27:24;;;;;;;29.08;14.75;;;8.10;99.90;;;7.47;100.00;101973.31;4105695;29;20023;-70
2024/03/21 04:29:25;;;;;;;25.60;14.13;;;8.10;99.90;;;7.44;100.00;101978.78;4105475;29;20039;-70
2024/03/21 04:31:26;;;;;;;32.55;15.48;;;8.00;99.90;;;7.46;100.00;101966.41;4106577;28;20039;-70
2024/03/21 04:33:27;;;;;;;34.60;15.88;;;8.10;99.90;;;7.46;100.00;101966.41;4106556;29;20500;-70
2024/03/21 04:35:27;;;;;;;31.52;16.02;;;8.10;99.90;;;7.46;100.00;101973.44;4121304;28;20035;-70
2024/03/21 04:37:29;;;;;;;32.35;16.48;;;8.10;99.90;;;7.46;100.00;101987.41;4105203;29;20127;-70
2024/03/21 04:39:30;;;;;;;28.73;15.50;;;8.10;99.90;;;7.48;100.00;101985.50;4093948;29;20035;-70
2024/03/21 04:41:31;;;;;;;32.45;15.75;;;8.10;99.90;;;7.44;100.00;101976.16;4106792;29;20038;-70
2024/03/21 04:43:31;;;;;;;30.95;15.60;;;8.10;99.90;;;7.44;100.00;101976.16;4106507;29;20035;-70
2024/03/21 04:45:32;;;;;;;33.88;16.30;;;8.10;99.90;;;7.39;100.00;101980.03;4106484;29;20028;-70
2024/03/21 04:47:34;;;;;;;33.47;17.38;;;8.10;99.90;;;7.39;100.00;101991.41;4106262;29;20031;-70
2024/03/21 04:49:35;;;;;;;42.85;17.70;;;8.00;99.90;;;7.40;100.00;101994.84;4105457;29;20590;-70
2024/03/21 04:51:35;;;;;;;31.15;17.85;;;8.00;99.90;;;7.43;100.00;102003.38;4106332;28;20067;-70
2024/03/21 04:53:36;;;;;;;30.25;16.42;;;8.00;99.90;;;7.44;100.00;102005.03;4106354;29;20030;-70
2024/03/21 04:55:37;;;;;;;35.67;17.98;;;8.10;99.90;;;7.43;100.00;102006.00;4106107;29;20027;-70
2024/03/21 04:57:39;;;;;;;33.17;16.92;;;8.10;99.90;;;7.39;100.00;102012.41;4107911;28;20039;-70
2024/03/21 04:59:40;;;;;;;35.42;17.23;;;8.00;99.90;;;7.37;100.00;102008.19;4104605;29;20119;-70
2024/03/21 05:01:40;;;;;;;34.63;16.80;;;8.00;99.90;;;7.37;100.00;102011.66;4106163;28;20023;-70
2024/03/21 05:03:41;;;;;;;40.72;18.30;;;8.00;99.90;;;7.36;100.00;102006.50;4106215;29;20046;-70
2024/03/21 05:05:43;;;;;;;39.47;18.67;;;8.00;99.90;;;7.39;100.00;102015.03;4106185;29;20403;-70
2024/03/21 05:07:44;;;;;;;43.13;19.05;;;8.00;99.90;;;7.39;100.00;102015.03;4104746;29;20499;-70
2024/03/21 05:09:45;;;;;;;42.22;20.48;;;8.00;99.90;;;7.40;100.00;102021.13;4105911;28;20051;-70
2024/03/21 05:11:46;;;;;;;27.20;16.30;;;8.00;99.90;;;7.36;100.00;102015.22;4105874;29;20046;-70
2024/03/21 05:13:49;;;;;;;33.03;18.60;;;8.00;99.90;;;7.36;100.00;102024.88;4104947;29;20082;-70
2024/03/21 05:15:51;;;;;;;43.08;19.40;;;8.00;99.90;;;7.31;100.00;102017.34;4105245;28;20079;-70
2024/03/21 05:17:52;;;;;;;38.83;18.13;;;8.00;99.90;;;7.28;100.00;102016.69;4104690;29;20032;-71
2024/03/21 05:19:55;;;;;;;35.67;19.35;;;8.00;99.90;;;7.28;100.00;102028.03;4105849;28;20035;-71
2024/03/21 05:21:56;;;;;;;43.50;20.52;;;7.90;99.90;;;7.28;100.00;102025.41;4104890;29;20593;-70
2024/03/21 05:23:57;;;;;;;33.22;17.88;;;7.90;99.90;;;7.26;100.00;102035.16;4105973;29;20090;-70
2024/03/21 05:25:58;;;;;;;43.92;20.63;;;7.90;99.90;;;7.24;100.00;102031.81;4105634;29;20031;-71
2024/03/21 05:27:59;;;;;;;39.10;18.85;;;7.90;99.90;;;7.21;100.00;102037.25;4105520;29;20035;-70
2024/03/21 05:30:00;;;;;;;37.58;20.15;;;7.90;99.90;;;7.23;100.00;102046.69;4105950;29;20042;-71
2024/03/21 05:32:02;;;;;;;41.83;22.55;;;7.90;99.90;;;7.27;100.00;102051.75;4105575;28;20051;-70
2024/03/21 05:34:03;;;;;;;43.42;20.45;;;7.90;99.90;;;7.31;100.00;102048.81;4105821;29;20081;-71
2024/03/21 05:36:04;;;;;;;47.13;23.08;;;7.90;99.90;;;7.31;100.00;102058.47;4105616;29;20472;-70
2024/03/21 05:38:05;;;;;;;45.45;22.15;;;8.00;99.90;;;7.33;100.00;102067.09;4105534;29;20020;-70
2024/03/21 05:40:07;;;;;;;42.30;21.15;;;8.00;99.90;;;7.28;100.00;102053.44;4105622;29;20035;-70
2024/03/21 05:42:10;;;;;;;43.95;22.83;;;7.90;99.90;;;7.27;100.00;102063.09;4105647;29;20054;-70
2024/03/21 05:44:11;;;;;;;41.30;21.15;;;7.90;99.90;;;7.26;100.00;102061.41;4105006;29;20023;-70
2024/03/21 05:46:12;;;;;;;49.25;23.27;;;7.90;99.90;;;7.27;100.00;102072.75;4104215;29;20089;-70
2024/03/21 05:48:13;;;;;;;47.70;21.90;;;7.90;99.90;;;7.28;100.00;102070.03;4105675;29;20039;-70
2024/03/21 05:50:14;;;;;;;44.83;20.45;;;7.90;99.90;;;7.28;100.00;102079.69;4105432;29;20483;-70
2024/03/21 05:52:15;;;;;;;45.75;23.80;;;7.90;99.90;;;7.31;100.00;102084.72;4105349;29;20487;-70
2024/03/21 05:54:16;;;;;;;47.00;23.35;;;7.90;99.90;;;7.24;100.00;102082.50;4120002;28;20114;-70
2024/03/21 05:56:17;;;;;;;48.92;24.05;;;7.90;99.90;;;7.27;100.00;102091.97;4105362;28;20035;-70
2024/03/21 05:58:18;;;;;;;50.55;23.85;;;7.90;99.90;;;7.26;100.00;102099.94;4105064;28;20046;-70
2024/03/21 06:00:21;;;;;;;45.42;23.48;;;7.90;99.90;;;7.22;100.00;102101.94;4105208;29;20411;-70
2024/03/21 06:02:22;;;;;;;51.08;24.75;;;7.80;99.90;;;7.24;100.00;102103.50;4105438;29;20159;-70
2024/03/21 06:04:23;;;;;;;42.58;23.13;;;7.90;99.90;;;7.22;100.00;102113.28;4105337;29;20403;-70
2024/03/21 06:06:24;;;;;;;48.05;24.10;;;7.90;99.90;;;7.19;100.00;102110.00;4105239;29;20019;-70
2024/03/21 06:08:25;;;;;;;45.30;23.85;;;7.80;99.90;;;7.17;100.00;102119.72;4104957;28;20059;-70
2024/03/21 06:10:25;;;;;;;46.53;22.65;;;7.80;99.90;;;7.15;100.00;102111.13;4103834;29;20499;-70
2024/03/21 06:12:27;;;;;;;47.95;24.40;;;7.80;99.90;;;7.13;100.00;102113.03;4105213;28;20074;-70
2024/03/21 06:14:27;;;;;;;46.25;24.45;;;7.70;99.90;;;7.15;100.00;102111.97;4105097;29;20028;-70
2024/03/21 06:16:29;;;;;;;46.17;24.23;;;7.80;99.90;;;7.13;100.00;102111.25;4104947;29;20023;-70
2024/03/21 06:18:30;;;;;;;48.20;24.15;;;7.80;99.90;;;7.18;100.00;102113.56;4103938;29;20019;-70
2024/03/21 06:20:31;;;;;;;49.90;25.50;;;7.80;99.90;;;7.20;100.00;102109.88;4095792;28;20415;-70
2024/03/21 06:22:36;;;;;;;49.88;25.90;;;7.80;99.90;;;7.22;100.00;102117.69;4100484;29;20459;-70
2024/03/21 06:24:37;;;;;;;49.35;26.45;;;7.80;99.90;;;7.19;100.00;102120.50;4104582;28;20031;-70
2024/03/21 06:26:38;;;;;;;43.70;24.45;;;7.80;99.90;;;7.20;100.00;102124.78;4119814;28;20039;-70
2024/03/21 06:28:39;;;;;;;52.78;25.13;;;7.80;99.90;;;7.20;100.00;102133.50;4119683;28;20031;-70
2024/03/21 06:30:40;;;;;;;52.25;25.67;;;7.80;99.90;;;7.17;100.00;102133.72;4100035;28;20368;-70
2024/03/21 06:32:41;;;;;;;53.80;26.33;;;7.80;99.90;;;7.20;100.00;102141.38;4103394;28;20168;-70
2024/03/21 06:34:43;;;;;;;42.90;23.23;;;7.80;99.90;;;7.23;100.00;102149.06;4103735;29;20031;-70
2024/03/21 06:36:44;;;;;;;47.40;23.80;;;7.80;99.90;;;7.23;100.00;102149.06;4104799;28;20023;-70
2024/03/21 06:38:45;;;;;;;58.75;26.23;;;7.90;99.90;;;7.26;100.00;102140.13;4103546;29;20020;-70
2024/03/21 06:40:46;;;;;;;48.30;24.92;;;7.90;99.90;;;7.28;100.00;102153.16;4104430;28;20057;-70
2024/03/21 06:42:47;;;;;;;49.75;26.90;;;7.90;99.90;;;7.32;100.00;102159.91;4104814;29;20031;-70
2024/03/21 06:44:48;;;;;;;48.17;24.17;;;7.90;99.90;;;7.33;100.00;102145.81;4104735;29;20039;-70
2024/03/21 06:46:49;;;;;;;47.85;24.25;;;8.00;99.90;;;7.38;100.00;102160.31;4103439;29;20027;-70
2024/03/21 06:48:50;;;;;;;48.22;25.42;;;8.00;99.90;;;7.40;100.00;102166.34;4104631;28;20038;-70
2024/03/21 06:50:51;;;;;;;44.30;25.17;;;8.00;99.90;;;7.42;100.00;102161.81;4104205;29;20484;-70
2024/03/21 06:52:52;;;;;;;45.28;23.77;;;8.00;99.90;;;7.43;100.00;102171.38;4119386;28;20037;-70
2024/03/21 06:54:53;;;;;;;48.63;23.92;;;8.10;99.90;;;7.50;100.00;102177.06;4104393;28;20028;-70
2024/03/21 06:56:54;;;;;;;44.70;24.30;;;8.10;99.90;;;7.51;100.00;102157.75;4104455;29;20023;-70
2024/03/21 06:58:55;;;;;;;45.13;24.50;;;8.10;99.90;;;7.56;100.00;102172.25;4103232;29;20023;-70
2024/03/21 07:00:56;;;;;;;54.97;26.15;;;8.20;99.90;;;7.62;100.00;102171.00;4104578;28;20403;-70
2024/03/21 07:02:57;;;;;;;41.90;23.33;;;8.20;99.90;;;7.65;100.00;102174.25;4104441;29;20042;-70
2024/03/21 07:04:58;;;;;;;49.00;25.00;;;8.20;99.90;;;7.69;100.00;102178.38;4104369;29;20513;-70
2024/03/21 07:06:59;;;;;;;52.50;24.08;;;8.30;99.90;;;7.74;100.00;102171.00;4104128;29;20126;-70
2024/03/21 07:09:02;;;;;;;47.95;25.33;;;8.40;99.90;;;7.79;100.00;102171.53;4102734;29;20043;-70
2024/03/21 07:11:04;;;;;;;46.53;24.02;;;8.40;99.90;;;7.87;100.00;102167.56;4103289;29;20134;-70
2024/03/21 07:13:05;;;;;;;55.15;24.85;;;8.40;99.90;;;7.91;100.00;102184.81;4104285;28;20027;-70
2024/03/21 07:15:06;;;;;;;40.95;23.15;;;8.50;99.90;;;7.93;100.00;102173.25;4104137;28;20058;-70
2024/03/21 07:17:07;;;;;;;46.58;23.33;;;8.50;99.90;;;7.97;100.00;102177.38;4103303;29;20019;-70
2024/03/21 07:19:08;;;;;;;45.50;23.92;;;8.60;99.90;;;8.01;100.00;102177.97;4104259;29;20511;-70
2024/03/21 07:21:09;;;;;;;42.00;21.90;;;8.60;99.90;;;8.02;100.00;102183.13;4104202;29;20448;-69
2024/03/21 07:23:10;;;;;;;45.35;22.85;;;8.60;99.90;;;8.10;100.00;102185.22;4102870;29;20046;-70
2024/03/21 07:25:11;;;;;;;41.17;22.23;;;8.70;99.90;;;8.15;100.00;102193.66;4102791;28;20028;-70
2024/03/21 07:27:12;;;;;;;41.28;23.02;;;8.70;99.90;;;8.20;100.00;102181.03;4104229;29;20031;-69
2024/03/21 07:29:12;;;;;;;36.55;22.48;;;8.80;99.90;;;8.21;100.00;102180.09;4104193;28;20483;-70
2024/03/21 07:31:13;;;;;;;45.13;23.33;;;8.80;99.90;;;8.29;100.00;102190.94;4103872;28;20043;-70
2024/03/21 07:33:14;;;;;;;46.55;25.00;;;8.80;99.90;;;8.32;100.00;102202.09;4103947;29;20039;-70
2024/03/21 07:35:15;;;;;;;34.42;21.60;;;8.90;99.90;;;8.34;100.00;102200.19;4104130;29;20032;-70
2024/03/21 07:37:16;;;;;;;37.80;20.77;;;8.90;99.90;;;8.37;100.00;102199.13;4102814;29;20026;-70
2024/03/21 07:39:22;;;;;;;35.72;21.20;;;9.00;99.90;;;8.43;100.00;102203.97;4102071;28;20027;-70
2024/03/21 07:41:23;;;;;;;42.50;22.02;;;9.00;99.90;;;8.52;100.00;102211.22;4102580;29;20094;-70
2024/03/21 07:43:24;;;;;;;38.55;22.48;;;9.10;99.90;;;8.55;100.00;102208.38;4103794;28;20027;-70
2024/03/21 07:45:25;;;;;;;35.40;23.35;;;9.10;99.90;;;8.61;100.00;102215.84;4102833;29;20090;-70
2024/03/21 07:47:26;;;;;;;38.17;21.38;;;9.20;99.90;;;8.67;100.00;102212.78;4103793;28;20038;-70
2024/03/21 07:49:27;;;;;;;37.17;20.48;;;9.20;99.90;;;8.67;100.00;102210.16;4102927;29;20066;-70
2024/03/21 07:51:28;;;;;;;40.92;22.45;;;9.30;99.90;;;8.71;100.00;102209.00;4102873;29;20035;-70
2024/03/21 07:53:29;;;;;;;39.80;21.52;;;9.30;99.90;;;8.80;100.00;102218.88;4102740;29;20031;-70
2024/03/21 07:55:30;;;;;;;35.70;20.27;;;9.40;99.90;;;8.85;100.00;102215.91;4103517;29;20082;-70
2024/03/21 07:57:31;;;;;;;29.48;19.77;;;9.50;99.90;;;8.94;100.00;102225.78;4102400;29;20046;-70
2024/03/21 07:59:32;;;;;;;38.70;20.73;;;9.50;99.90;;;8.97;100.00;102222.94;4103952;29;20061;-70
2024/03/21 08:01:33;;;;;;;35.47;20.90;;;9.60;99.90;;;9.02;100.00;102223.44;4103999;29;20027;-70
2024/03/21 08:03:34;;;;;;;33.03;21.08;;;9.60;99.90;;;9.10;100.00;102228.16;4102587;29;20035;-70
2024/03/21 08:05:34;;;;;;;31.58;19.05;;;9.70;99.90;;;9.16;100.00;102236.47;4103908;28;20072;-70
2024/03/21 08:07:35;;;;;;;35.53;18.70;;;9.70;99.90;;;9.18;100.00;102244.22;4103650;29;20094;-70
2024/03/21 08:09:36;;;;;;;32.58;19.00;;;9.80;99.90;;;9.23;100.00;102231.56;4103770;29;20065;-70
2024/03/21 08:11:37;;;;;;;29.20;18.38;;;9.90;99.90;;;9.29;100.00;102233.75;4103631;29;20035;-70
2024/03/21 08:13:40;;;;;;;26.10;17.10;;;9.90;99.90;;;9.34;100.00;102229.88;4104031;29;20066;-70
2024/03/21 08:15:41;;;;;;;30.67;18.92;;;10.00;99.90;;;9.44;100.00;102237.91;4102760;29;20033;-70
2024/03/21 08:17:42;;;;;;;27.48;18.10;;;10.10;99.90;;;9.50;100.00;102237.47;4103694;29;20395;-71
2024/03/21 08:19:46;;;;;;;30.00;17.90;;;10.10;99.90;;;9.62;100.00;102244.47;4103597;28;20503;-70
2024/03/21 08:21:47;;;;;;;28.98;17.17;;;10.20;99.90;;;9.70;100.00;102247.41;4103901;29;20083;-70
2024/03/21 08:23:48;;;;;;;32.85;18.33;;;10.30;99.90;;;9.77;100.00;102247.75;4102497;29;20034;-70
2024/03/21 08:25:49;;;;;;;26.73;15.48;;;10.40;99.90;;;9.86;100.00;102255.81;4090825;29;20130;-70